Time;durP1;ratioP1;P1;durP2;ratioP2;P2;SDS_P1;SDS_P2;PMS_P1;PMS_P2;Temp;Humidity;BMP_temperature;BMP_pressure;BME280_temperature;BME280_humidity;BME280_pressure;Samples;Min_cycle;Max_cycle;Signal;HPM_P1;HPM_P2
2023/09/12 00:01:47;;;;;;;25.13;21.53;;;;;;;;;;5023198;28;20407;-58
2023/09/12 00:04:12;;;;;;;35.10;24.20;;;;;;;;;;5021031;28;20905;-59
2023/09/12 00:06:38;;;;;;;28.93;22.83;;;;;;;;;;5019672;28;20415;-59
2023/09/12 00:09:05;;;;;;;35.47;25.10;;;;;;;;;;5022788;28;20422;-60
2023/09/12 00:11:30;;;;;;;39.58;27.95;;;;;;;;;;5031768;28;20410;-59
2023/09/12 00:13:56;;;;;;;32.77;24.57;;;;;;;;;;5024959;28;20909;-59
2023/09/12 00:16:21;;;;;;;33.73;24.63;;;;;;;;;;5030113;28;20726;-59
2023/09/12 00:18:46;;;;;;;35.07;26.67;;;;;;;;;;5031646;28;20491;-59
2023/09/12 00:21:11;;;;;;;31.70;24.47;;;;;;;;;;5026569;28;20498;-58
2023/09/12 00:23:37;;;;;;;32.87;24.03;;;;;;;;;;5021437;28;20436;-59
2023/09/12 00:26:02;;;;;;;30.67;22.67;;;;;;;;;;5022766;28;20413;-59
2023/09/12 00:28:27;;;;;;;27.63;21.33;;;;;;;;;;5020642;28;20905;-58
2023/09/12 00:30:53;;;;;;;29.03;23.17;;;;;;;;;;5019521;28;20436;-58
2023/09/12 00:33:18;;;;;;;28.07;22.27;;;;;;;;;;5022629;28;20416;-59
2023/09/12 00:35:44;;;;;;;27.17;21.80;;;;;;;;;;5025252;28;20403;-58
2023/09/12 00:38:09;;;;;;;28.07;21.90;;;;;;;;;;5021572;28;20416;-58
2023/09/12 00:40:34;;;;;;;27.30;21.80;;;;;;;;;;5026665;28;20406;-58
2023/09/12 00:43:00;;;;;;;29.60;24.30;;;;;;;;;;5025625;28;20415;-58
2023/09/12 00:45:25;;;;;;;35.33;26.53;;;;;;;;;;5027788;28;20488;-58
2023/09/12 00:47:50;;;;;;;29.87;23.57;;;;;;;;;;5036101;28;20811;-58
2023/09/12 00:50:16;;;;;;;29.70;24.27;;;;;;;;;;5034768;28;20405;-59
2023/09/12 00:52:41;;;;;;;30.57;24.53;;;;;;;;;;5025615;28;20434;-58
2023/09/12 00:55:06;;;;;;;33.53;24.77;;;;;;;;;;5020493;28;20821;-59
2023/09/12 00:57:32;;;;;;;31.67;24.37;;;;;;;;;;5025771;28;20391;-58
2023/09/12 00:59:58;;;;;;;28.65;22.38;;;;;;;;;;5023994;28;20461;-58
2023/09/12 01:02:24;;;;;;;24.53;20.80;;;;;;;;;;5021434;28;20403;-59
2023/09/12 01:04:49;;;;;;;30.38;23.25;;;;;;;;;;5031527;28;20777;-58
2023/09/12 01:07:14;;;;;;;26.87;21.70;;;;;;;;;;5033095;28;20423;-58
2023/09/12 01:09:40;;;;;;;26.48;22.60;;;;;;;;;;5032284;28;20399;-58
2023/09/12 01:12:05;;;;;;;30.47;23.20;;;;;;;;;;5032247;28;20399;-59
2023/09/12 01:14:31;;;;;;;27.40;22.47;;;;;;;;;;5028327;28;20404;-58
2023/09/12 01:16:56;;;;;;;28.43;22.87;;;;;;;;;;5012267;28;20835;-58
2023/09/12 01:19:21;;;;;;;25.67;21.07;;;;;;;;;;5012451;28;20756;-58
2023/09/12 01:21:53;;;;;;;29.30;22.80;;;;;;;;;;5012858;28;20939;-58
2023/09/12 01:24:25;;;;;;;25.17;21.23;;;;;;;;;;5010361;28;20408;-58
2023/09/12 01:26:56;;;;;;;29.15;22.80;;;;;;;;;;5011313;28;20393;-58
2023/09/12 01:29:21;;;;;;;28.45;22.33;;;;;;;;;;5015064;28;20409;-59
2023/09/12 01:31:47;;;;;;;26.23;21.50;;;;;;;;;;5030598;28;20962;-58
2023/09/12 01:34:12;;;;;;;26.43;21.30;;;;;;;;;;5032039;28;20391;-58
2023/09/12 01:36:37;;;;;;;25.13;20.80;;;;;;;;;;5032623;28;20395;-58
2023/09/12 01:39:03;;;;;;;23.97;20.53;;;;;;;;;;5031125;28;20904;-58
2023/09/12 01:41:28;;;;;;;24.30;20.20;;;;;;;;;;5032193;28;20411;-58
2023/09/12 01:43:54;;;;;;;24.00;20.42;;;;;;;;;;5021453;28;20400;-58
2023/09/12 01:46:20;;;;;;;27.87;21.87;;;;;;;;;;5009724;28;22059;-59
2023/09/12 01:48:45;;;;;;;29.80;24.00;;;;;;;;;;5012461;28;20397;-58
2023/09/12 01:51:10;;;;;;;25.43;20.87;;;;;;;;;;5012015;28;20763;-58
2023/09/12 01:53:36;;;;;;;25.90;21.80;;;;;;;;;;5011530;28;20396;-58
2023/09/12 01:56:01;;;;;;;24.90;21.10;;;;;;;;;;5011894;28;20437;-59
2023/09/12 01:58:26;;;;;;;24.73;21.33;;;;;;;;;;5010820;28;20487;-58
2023/09/12 02:00:52;;;;;;;25.67;20.90;;;;;;;;;;5011572;28;20892;-58
2023/09/12 02:03:17;;;;;;;24.03;20.80;;;;;;;;;;5011338;28;20416;-58
2023/09/12 02:05:42;;;;;;;23.80;20.13;;;;;;;;;;5012194;28;20943;-58
2023/09/12 02:08:07;;;;;;;23.90;19.83;;;;;;;;;;5010944;28;20409;-59
2023/09/12 02:10:33;;;;;;;23.93;19.93;;;;;;;;;;5012207;28;20408;-58
2023/09/12 02:12:58;;;;;;;22.30;19.43;;;;;;;;;;5016446;28;20403;-58
2023/09/12 02:15:23;;;;;;;26.03;20.90;;;;;;;;;;5026071;28;20385;-58
2023/09/12 02:17:50;;;;;;;24.50;19.75;;;;;;;;;;5021023;28;20910;-58
2023/09/12 02:20:15;;;;;;;21.17;18.88;;;;;;;;;;5032481;28;20430;-58
2023/09/12 02:22:41;;;;;;;22.57;19.70;;;;;;;;;;5036626;28;20411;-58
2023/09/12 02:25:07;;;;;;;22.27;19.87;;;;;;;;;;5025377;28;20415;-58
2023/09/12 02:27:33;;;;;;;23.05;19.60;;;;;;;;;;5020531;28;20395;-58
2023/09/12 02:29:58;;;;;;;24.03;21.03;;;;;;;;;;5024604;28;20461;-58
2023/09/12 02:32:23;;;;;;;23.57;20.33;;;;;;;;;;5023985;28;20399;-58
2023/09/12 02:34:49;;;;;;;24.30;21.33;;;;;;;;;;5018628;28;20405;-58
2023/09/12 02:37:15;;;;;;;21.77;19.20;;;;;;;;;;5024314;28;20416;-59
2023/09/12 02:39:40;;;;;;;22.10;19.65;;;;;;;;;;5024204;28;20489;-58
2023/09/12 02:42:06;;;;;;;22.90;19.50;;;;;;;;;;5020562;28;20494;-59
2023/09/12 02:44:31;;;;;;;22.13;19.40;;;;;;;;;;5029523;28;20739;-58
2023/09/12 02:46:56;;;;;;;22.57;19.40;;;;;;;;;;5032739;28;20490;-58
2023/09/12 02:49:21;;;;;;;22.13;19.73;;;;;;;;;;5033417;28;20393;-58
2023/09/12 02:51:47;;;;;;;23.93;20.93;;;;;;;;;;5032074;28;20900;-58
2023/09/12 02:54:12;;;;;;;22.23;19.50;;;;;;;;;;5033980;28;20501;-58
2023/09/12 02:56:37;;;;;;;22.03;19.17;;;;;;;;;;5031790;28;20478;-58
2023/09/12 02:59:04;;;;;;;26.23;21.47;;;;;;;;;;5027217;28;20414;-59
2023/09/12 03:01:30;;;;;;;24.58;21.13;;;;;;;;;;5031260;28;21090;-58
2023/09/12 03:03:55;;;;;;;25.37;22.27;;;;;;;;;;5023154;28;20424;-58
2023/09/12 03:06:20;;;;;;;28.00;24.03;;;;;;;;;;5021216;28;20474;-58
2023/09/12 03:08:46;;;;;;;25.43;20.73;;;;;;;;;;5021388;28;20507;-58
2023/09/12 03:11:11;;;;;;;22.27;19.70;;;;;;;;;;5022257;28;20414;-58
2023/09/12 03:13:37;;;;;;;22.73;19.40;;;;;;;;;;5023536;28;20423;-58
2023/09/12 03:16:02;;;;;;;29.07;23.80;;;;;;;;;;5018863;28;20457;-58
2023/09/12 03:18:27;;;;;;;26.70;21.75;;;;;;;;;;5022953;28;20453;-58
2023/09/12 03:20:53;;;;;;;26.83;23.17;;;;;;;;;;5024055;28;20407;-58
2023/09/12 03:23:19;;;;;;;28.40;22.93;;;;;;;;;;5026573;28;20412;-58
2023/09/12 03:25:44;;;;;;;25.33;21.37;;;;;;;;;;5030741;28;20634;-58
2023/09/12 03:28:09;;;;;;;30.40;23.70;;;;;;;;;;5033002;28;20412;-59
2023/09/12 03:30:35;;;;;;;30.80;24.13;;;;;;;;;;5027542;28;20395;-58
2023/09/12 03:33:00;;;;;;;28.83;22.25;;;;;;;;;;5020230;28;20407;-60
2023/09/12 03:35:26;;;;;;;25.13;20.30;;;;;;;;;;5023694;28;20407;-58
2023/09/12 03:37:51;;;;;;;24.63;20.40;;;;;;;;;;5031264;28;20972;-58
2023/09/12 03:40:17;;;;;;;25.70;20.97;;;;;;;;;;5028152;28;20440;-58
2023/09/12 03:42:42;;;;;;;27.37;21.80;;;;;;;;;;5020813;28;20398;-58
2023/09/12 03:45:07;;;;;;;25.73;22.00;;;;;;;;;;5017839;28;20768;-58
2023/09/12 03:47:33;;;;;;;30.57;23.83;;;;;;;;;;5019960;28;20484;-58
2023/09/12 03:49:58;;;;;;;26.87;21.63;;;;;;;;;;5021675;28;20461;-58
2023/09/12 03:52:23;;;;;;;29.90;21.80;;;;;;;;;;5022491;28;20482;-58
2023/09/12 03:54:49;;;;;;;25.47;21.40;;;;;;;;;;5021735;28;20461;-58
2023/09/12 03:57:14;;;;;;;26.37;21.97;;;;;;;;;;5019516;28;20719;-58
2023/09/12 03:59:39;;;;;;;27.57;21.83;;;;;;;;;;5022887;28;22153;-58
2023/09/12 04:02:04;;;;;;;27.43;22.77;;;;;;;;;;5022664;28;20411;-59
2023/09/12 04:04:30;;;;;;;26.70;22.90;;;;;;;;;;5021886;28;20393;-58
2023/09/12 04:06:55;;;;;;;31.67;24.77;;;;;;;;;;5034480;28;20737;-58
2023/09/12 04:09:20;;;;;;;25.63;21.27;;;;;;;;;;5032528;28;20407;-58
2023/09/12 04:11:46;;;;;;;31.07;25.63;;;;;;;;;;5032212;28;20738;-58
2023/09/12 04:14:11;;;;;;;30.33;24.83;;;;;;;;;;5033281;28;20414;-58
2023/09/12 04:16:36;;;;;;;25.83;22.87;;;;;;;;;;5038587;28;20399;-58
2023/09/12 04:19:03;;;;;;;32.22;24.70;;;;;;;;;;5035903;28;20413;-58
2023/09/12 04:21:28;;;;;;;27.70;23.73;;;;;;;;;;5030526;28;20893;-58
2023/09/12 04:23:53;;;;;;;26.17;23.00;;;;;;;;;;5035357;28;20399;-58
2023/09/12 04:26:19;;;;;;;41.07;22.93;;;;;;;;;;5036280;28;20418;-58
2023/09/12 04:28:46;;;;;;;29.50;23.55;;;;;;;;;;5033285;28;20405;-58
2023/09/12 04:31:11;;;;;;;27.73;22.20;;;;;;;;;;5021321;28;20456;-59
2023/09/12 04:33:36;;;;;;;24.63;22.05;;;;;;;;;;5032703;28;20403;-58
2023/09/12 04:36:02;;;;;;;25.00;20.70;;;;;;;;;;5027385;28;20404;-59
2023/09/12 04:38:27;;;;;;;23.48;21.23;;;;;;;;;;5028030;28;20917;-58
2023/09/12 04:40:53;;;;;;;22.13;20.00;;;;;;;;;;5028849;28;20941;-58
2023/09/12 04:43:19;;;;;;;21.92;19.70;;;;;;;;;;5034535;28;20407;-58
2023/09/12 04:45:44;;;;;;;22.38;20.13;;;;;;;;;;5026993;28;20421;-58
2023/09/12 04:48:09;;;;;;;22.38;20.17;;;;;;;;;;5021749;28;20407;-59
2023/09/12 04:50:40;;;;;;;23.98;21.17;;;;;;;;;;5024953;28;21584;-58
2023/09/12 04:53:05;;;;;;;26.92;22.58;;;;;;;;;;5035299;28;20489;-58
2023/09/12 04:55:30;;;;;;;25.70;22.85;;;;;;;;;;5036540;28;20473;-58
2023/09/12 04:57:55;;;;;;;27.20;23.15;;;;;;;;;;5034052;28;20827;-58
2023/09/12 05:00:21;;;;;;;30.70;24.00;;;;;;;;;;5034831;28;20486;-58
2023/09/12 05:02:46;;;;;;;31.27;23.40;;;;;;;;;;5033672;28;20418;-58
2023/09/12 05:05:11;;;;;;;33.70;25.00;;;;;;;;;;5030860;28;20403;-58
2023/09/12 05:07:37;;;;;;;30.07;24.67;;;;;;;;;;5037460;28;20912;-58
2023/09/12 05:10:03;;;;;;;28.60;24.57;;;;;;;;;;5036174;28;20494;-59
2023/09/12 05:12:28;;;;;;;28.85;24.67;;;;;;;;;;5032109;28;20445;-58
2023/09/12 05:14:54;;;;;;;27.10;24.20;;;;;;;;;;5030962;28;20411;-58
2023/09/12 05:17:19;;;;;;;26.60;23.13;;;;;;;;;;5024927;28;21291;-58
2023/09/12 05:19:44;;;;;;;27.43;23.97;;;;;;;;;;5025265;28;20403;-58
2023/09/12 05:22:10;;;;;;;26.73;23.83;;;;;;;;;;5029240;28;20413;-58
2023/09/12 05:24:35;;;;;;;29.93;25.30;;;;;;;;;;5033257;28;20436;-58
2023/09/12 05:27:00;;;;;;;27.30;24.13;;;;;;;;;;5034160;28;20399;-60
2023/09/12 05:29:25;;;;;;;33.23;26.80;;;;;;;;;;5029985;28;20395;-58
2023/09/12 05:31:51;;;;;;;30.90;25.83;;;;;;;;;;5024134;28;20765;-58
2023/09/12 05:34:16;;;;;;;31.20;26.47;;;;;;;;;;5025234;28;20414;-58
2023/09/12 05:36:41;;;;;;;35.53;28.27;;;;;;;;;;5023518;28;20524;-58
2023/09/12 05:39:07;;;;;;;32.50;26.20;;;;;;;;;;5020158;28;20434;-58
2023/09/12 05:41:32;;;;;;;33.03;27.43;;;;;;;;;;5025759;28;20430;-58
2023/09/12 05:43:57;;;;;;;30.00;25.63;;;;;;;;;;5024255;28;20427;-58
2023/09/12 05:46:23;;;;;;;35.23;27.37;;;;;;;;;;5022740;28;20513;-58
2023/09/12 05:48:48;;;;;;;33.00;28.00;;;;;;;;;;5036809;28;20910;-58
2023/09/12 05:51:13;;;;;;;35.10;28.23;;;;;;;;;;5033672;28;20863;-58
2023/09/12 05:53:38;;;;;;;33.37;26.43;;;;;;;;;;5021769;28;21361;-58
2023/09/12 05:56:04;;;;;;;41.10;31.43;;;;;;;;;;5023638;28;20414;-58
2023/09/12 05:58:29;;;;;;;44.07;32.53;;;;;;;;;;5024553;28;20442;-58
2023/09/12 06:00:55;;;;;;;46.43;33.70;;;;;;;;;;5022891;28;20414;-58
2023/09/12 06:03:20;;;;;;;48.53;34.73;;;;;;;;;;5020870;28;20387;-59
2023/09/12 06:05:46;;;;;;;46.13;33.90;;;;;;;;;;5023536;28;20901;-58
2023/09/12 06:08:11;;;;;;;43.50;34.17;;;;;;;;;;5024796;28;20405;-58
2023/09/12 06:10:36;;;;;;;48.87;34.60;;;;;;;;;;5019640;28;20920;-58
2023/09/12 06:13:02;;;;;;;43.40;33.33;;;;;;;;;;5024244;28;20433;-59
2023/09/12 06:15:28;;;;;;;48.00;34.80;;;;;;;;;;5024968;28;20403;-58
2023/09/12 06:17:53;;;;;;;52.13;36.20;;;;;;;;;;5021914;28;20916;-58
2023/09/12 06:20:19;;;;;;;47.33;34.30;;;;;;;;;;5023807;28;20905;-58
2023/09/12 06:22:44;;;;;;;50.77;35.63;;;;;;;;;;5036566;28;20413;-58
2023/09/12 06:25:09;;;;;;;50.67;34.93;;;;;;;;;;5033460;28;20393;-58
2023/09/12 06:27:35;;;;;;;49.37;35.07;;;;;;;;;;5028226;28;20403;-58
2023/09/12 06:30:00;;;;;;;53.73;37.40;;;;;;;;;;5032008;28;20403;-58
2023/09/12 06:32:25;;;;;;;48.67;35.17;;;;;;;;;;5022830;28;20772;-58
2023/09/12 06:34:51;;;;;;;50.13;36.07;;;;;;;;;;5027149;28;20405;-58
2023/09/12 06:37:16;;;;;;;48.67;34.67;;;;;;;;;;5028532;28;20419;-58
2023/09/12 06:39:41;;;;;;;53.77;36.53;;;;;;;;;;5026784;28;20416;-58
2023/09/12 06:42:07;;;;;;;49.57;36.00;;;;;;;;;;5033303;28;20518;-59
2023/09/12 06:44:32;;;;;;;42.65;32.95;;;;;;;;;;5032057;28;20403;-58
2023/09/12 06:46:58;;;;;;;50.25;35.38;;;;;;;;;;5030642;28;20485;-58
2023/09/12 06:49:23;;;;;;;46.53;34.92;;;;;;;;;;5031298;28;20872;-58
2023/09/12 06:51:48;;;;;;;49.75;35.40;;;;;;;;;;5036025;28;20416;-58
2023/09/12 06:54:14;;;;;;;48.23;35.07;;;;;;;;;;5032581;28;20408;-58
2023/09/12 06:56:42;;;;;;;54.95;37.50;;;;;;;;;;5027764;28;20482;-58
2023/09/12 06:59:07;;;;;;;55.78;37.65;;;;;;;;;;5032621;28;20493;-58
2023/09/12 07:01:33;;;;;;;48.33;34.83;;;;;;;;;;5034689;28;20807;-58
2023/09/12 07:03:58;;;;;;;48.37;35.60;;;;;;;;;;5024455;28;20776;-58
2023/09/12 07:06:23;;;;;;;48.37;35.47;;;;;;;;;;5021674;28;20407;-58
2023/09/12 07:08:49;;;;;;;47.53;35.40;;;;;;;;;;5021995;28;20803;-58
2023/09/12 07:11:14;;;;;;;49.20;36.10;;;;;;;;;;5021985;28;20482;-58
2023/09/12 07:13:39;;;;;;;47.07;37.20;;;;;;;;;;5028204;28;20879;-58
2023/09/12 07:16:05;;;;;;;49.87;36.93;;;;;;;;;;5022556;28;20410;-59
2023/09/12 07:18:32;;;;;;;52.50;38.00;;;;;;;;;;5023840;28;20482;-58
2023/09/12 07:20:59;;;;;;;47.13;35.65;;;;;;;;;;5018233;28;20941;-58
2023/09/12 07:23:24;;;;;;;49.95;36.47;;;;;;;;;;5021753;28;20422;-58
2023/09/12 07:25:49;;;;;;;51.50;37.00;;;;;;;;;;5023973;28;20779;-59
2023/09/12 07:28:15;;;;;;;47.87;36.43;;;;;;;;;;5020587;28;20409;-58
2023/09/12 07:30:40;;;;;;;47.75;36.55;;;;;;;;;;5028769;28;20493;-58
2023/09/12 07:33:05;;;;;;;50.53;36.97;;;;;;;;;;5031688;28;20455;-58
2023/09/12 07:35:31;;;;;;;45.10;34.63;;;;;;;;;;5030715;28;20399;-58
2023/09/12 07:37:56;;;;;;;43.30;33.97;;;;;;;;;;5026694;28;20431;-58
2023/09/12 07:40:22;;;;;;;42.90;33.37;;;;;;;;;;5034361;28;20425;-58
2023/09/12 07:42:47;;;;;;;43.60;33.87;;;;;;;;;;5034991;28;20802;-58
2023/09/12 07:45:13;;;;;;;46.23;33.90;;;;;;;;;;5029112;28;20411;-58
2023/09/12 07:47:38;;;;;;;43.10;33.08;;;;;;;;;;5034317;28;20492;-58
2023/09/12 07:50:06;;;;;;;46.03;34.13;;;;;;;;;;5025791;28;20427;-58
2023/09/12 07:52:31;;;;;;;46.45;35.03;;;;;;;;;;5020400;28;20395;-58
2023/09/12 07:55:03;;;;;;;47.43;35.33;;;;;;;;;;5020603;28;20562;-58
2023/09/12 07:57:29;;;;;;;44.57;33.70;;;;;;;;;;5031580;28;20414;-58
2023/09/12 07:59:54;;;;;;;45.63;33.22;;;;;;;;;;5030871;28;20403;-58
2023/09/12 08:02:19;;;;;;;43.23;33.20;;;;;;;;;;5025858;28;20641;-58
2023/09/12 08:04:45;;;;;;;45.53;33.93;;;;;;;;;;5022731;28;20461;-59
2023/09/12 08:07:10;;;;;;;46.67;35.13;;;;;;;;;;5022634;28;20415;-58
2023/09/12 08:09:51;;;;;;;45.37;35.10;;;;;;;;;;5020015;28;20399;-58
2023/09/12 08:12:17;;;;;;;46.17;35.37;;;;;;;;;;5026971;28;20414;-58
2023/09/12 08:14:42;;;;;;;46.58;33.97;;;;;;;;;;5027632;28;20436;-58
2023/09/12 08:17:07;;;;;;;44.73;35.63;;;;;;;;;;5031971;28;20411;-59
2023/09/12 08:19:32;;;;;;;44.03;34.83;;;;;;;;;;5028588;28;20451;-58
2023/09/12 08:21:58;;;;;;;45.40;34.83;;;;;;;;;;5017622;28;20523;-58
2023/09/12 08:24:23;;;;;;;42.93;33.43;;;;;;;;;;5022619;28;20412;-58
2023/09/12 08:26:49;;;;;;;40.03;32.07;;;;;;;;;;5018798;28;20449;-58
2023/09/12 08:29:14;;;;;;;46.10;35.40;;;;;;;;;;5021184;28;20429;-58
2023/09/12 08:31:40;;;;;;;44.83;36.05;;;;;;;;;;5023027;28;20410;-58
2023/09/12 08:34:05;;;;;;;45.08;36.47;;;;;;;;;;5020644;28;20825;-59
2023/09/12 08:36:30;;;;;;;47.73;36.73;;;;;;;;;;5019046;28;20407;-58
2023/09/12 08:38:56;;;;;;;39.37;32.00;;;;;;;;;;5022956;28;20407;-58
2023/09/12 08:41:21;;;;;;;39.30;31.77;;;;;;;;;;5021781;28;20854;-58
2023/09/12 08:43:46;;;;;;;35.40;27.70;;;;;;;;;;5016579;28;20427;-58
2023/09/12 08:46:12;;;;;;;36.07;29.00;;;;;;;;;;5018559;28;20407;-58
2023/09/12 08:48:37;;;;;;;34.83;27.20;;;;;;;;;;5030466;28;20399;-58
2023/09/12 08:51:03;;;;;;;31.95;24.95;;;;;;;;;;5018619;28;20917;-58
2023/09/12 08:53:28;;;;;;;32.43;26.23;;;;;;;;;;5031759;28;20397;-58
2023/09/12 08:55:53;;;;;;;30.97;25.77;;;;;;;;;;5035261;28;20804;-58
2023/09/12 08:58:19;;;;;;;32.00;25.00;;;;;;;;;;5034235;28;20402;-58
2023/09/12 09:00:44;;;;;;;29.80;24.33;;;;;;;;;;5020924;28;20443;-58
2023/09/12 09:03:09;;;;;;;31.27;24.87;;;;;;;;;;5041525;28;20478;-59
2023/09/12 09:05:35;;;;;;;31.13;26.30;;;;;;;;;;5034654;28;20470;-58
2023/09/12 09:08:00;;;;;;;28.30;23.45;;;;;;;;;;5028544;28;20476;-58
2023/09/12 09:10:27;;;;;;;24.07;19.57;;;;;;;;;;5033854;28;20398;-58
2023/09/12 09:12:52;;;;;;;24.90;19.02;;;;;;;;;;5026422;28;20421;-59
2023/09/12 09:15:22;;;;;;;25.07;19.67;;;;;;;;;;5021483;28;20391;-58
2023/09/12 09:17:48;;;;;;;26.27;20.03;;;;;;;;;;5023187;28;20444;-58
2023/09/12 09:20:23;;;;;;;19.90;16.90;;;;;;;;;;5027415;28;20497;-58
2023/09/12 09:22:56;;;;;;;21.38;17.55;;;;;;;;;;5036398;28;20448;-58
2023/09/12 09:25:21;;;;;;;19.90;17.13;;;;;;;;;;5030192;28;20466;-58
2023/09/12 09:27:46;;;;;;;23.00;17.73;;;;;;;;;;5033225;28;20474;-58
2023/09/12 09:30:12;;;;;;;19.73;15.23;;;;;;;;;;5026212;28;20735;-58
2023/09/12 09:32:37;;;;;;;18.87;14.70;;;;;;;;;;5035957;28;20404;-58
2023/09/12 09:35:03;;;;;;;17.27;13.50;;;;;;;;;;5034056;28;20448;-59
2023/09/12 09:37:28;;;;;;;17.25;14.05;;;;;;;;;;5023634;28;20754;-58
2023/09/12 09:39:54;;;;;;;16.50;12.70;;;;;;;;;;5033814;28;20905;-58
2023/09/12 09:42:19;;;;;;;16.13;12.77;;;;;;;;;;5030810;28;20433;-58
2023/09/12 09:44:45;;;;;;;18.37;14.77;;;;;;;;;;5025115;28;20490;-58
2023/09/12 09:47:10;;;;;;;17.20;14.23;;;;;;;;;;5033939;28;20414;-59
2023/09/12 09:49:35;;;;;;;21.77;16.77;;;;;;;;;;5027603;28;20403;-58
2023/09/12 09:52:03;;;;;;;20.23;15.80;;;;;;;;;;5030825;28;20501;-60
2023/09/12 09:54:28;;;;;;;18.10;14.47;;;;;;;;;;5037225;28;20409;-58
2023/09/12 09:56:54;;;;;;;18.83;15.07;;;;;;;;;;5035515;28;20463;-58
2023/09/12 09:59:21;;;;;;;21.73;17.55;;;;;;;;;;5029611;28;20779;-58
2023/09/12 10:01:47;;;;;;;20.48;15.48;;;;;;;;;;5025332;28;20410;-58
2023/09/12 10:04:13;;;;;;;19.17;15.40;;;;;;;;;;5024652;28;20418;-58
2023/09/12 10:06:39;;;;;;;17.85;13.63;;;;;;;;;;5031484;28;20402;-59
2023/09/12 10:09:06;;;;;;;18.50;14.93;;;;;;;;;;5035219;28;20491;-59
2023/09/12 10:11:32;;;;;;;16.10;12.60;;;;;;;;;;5024687;28;20453;-58
2023/09/12 10:13:57;;;;;;;16.50;12.53;;;;;;;;;;5022091;28;20406;-58
2023/09/12 10:16:24;;;;;;;18.13;15.77;;;;;;;;;;5020420;28;20395;-59
2023/09/12 10:18:54;;;;;;;16.23;13.68;;;;;;;;;;5024089;28;20409;-58
2023/09/12 10:21:20;;;;;;;16.67;13.73;;;;;;;;;;5022995;28;20419;-58
2023/09/12 10:23:46;;;;;;;18.65;12.60;;;;;;;;;;5019493;28;20407;-58
2023/09/12 10:26:11;;;;;;;17.20;13.23;;;;;;;;;;5022451;28;20421;-59
2023/09/12 10:28:37;;;;;;;16.30;12.60;;;;;;;;;;5023345;28;20980;-58
2023/09/12 10:31:02;;;;;;;14.90;11.63;;;;;;;;;;5019709;28;20406;-59
2023/09/12 10:33:31;;;;;;;13.68;10.40;;;;;;;;;;5028654;28;20404;-58
2023/09/12 10:35:56;;;;;;;13.55;11.15;;;;;;;;;;5032761;28;20438;-58
2023/09/12 10:38:21;;;;;;;13.77;10.40;;;;;;;;;;5021909;28;20390;-59
2023/09/12 10:40:47;;;;;;;14.73;11.37;;;;;;;;;;5018145;28;20897;-58
2023/09/12 10:43:12;;;;;;;13.03;9.30;;;;;;;;;;5023070;28;20426;-58
2023/09/12 10:45:38;;;;;;;13.90;10.53;;;;;;;;;;5022964;28;20411;-58
2023/09/12 10:48:03;;;;;;;14.60;10.70;;;;;;;;;;5018532;28;20433;-59
2023/09/12 10:50:29;;;;;;;15.00;10.52;;;;;;;;;;5022257;28;20480;-59
2023/09/12 10:52:54;;;;;;;12.55;8.95;;;;;;;;;;5039514;28;20435;-58
2023/09/12 10:55:19;;;;;;;12.40;9.00;;;;;;;;;;5029611;28;20393;-58
2023/09/12 10:58:00;;;;;;;12.53;8.87;;;;;;;;;;5029775;28;20417;-58
2023/09/12 11:00:25;;;;;;;11.70;8.93;;;;;;;;;;5022682;28;20403;-58
2023/09/12 11:02:51;;;;;;;13.68;11.20;;;;;;;;;;5024582;28;20418;-59
2023/09/12 11:05:28;;;;;;;14.27;11.32;;;;;;;;;;5018968;28;20392;-58
2023/09/12 11:08:00;;;;;;;14.73;11.15;;;;;;;;;;5021966;28;20464;-58
2023/09/12 11:10:25;;;;;;;16.55;11.85;;;;;;;;;;5023398;28;20405;-58
2023/09/12 11:12:52;;;;;;;14.77;10.65;;;;;;;;;;5023037;28;20407;-58
2023/09/12 11:15:18;;;;;;;13.85;10.63;;;;;;;;;;5017969;28;20399;-59
2023/09/12 11:17:44;;;;;;;14.40;10.55;;;;;;;;;;5023593;28;20960;-58
2023/09/12 11:20:10;;;;;;;13.17;9.87;;;;;;;;;;5023677;28;20399;-58
2023/09/12 11:22:43;;;;;;;13.68;10.70;;;;;;;;;;5018951;28;20403;-58
2023/09/12 11:25:18;;;;;;;14.43;10.00;;;;;;;;;;5021565;28;20492;-58
2023/09/12 11:27:45;;;;;;;12.10;9.80;;;;;;;;;;5022768;28;20415;-58
2023/09/12 11:30:10;;;;;;;9.25;6.80;;;;;;;;;;5020527;28;20402;-59
2023/09/12 11:32:36;;;;;;;10.97;6.93;;;;;;;;;;5019590;28;20407;-58
2023/09/12 11:35:05;;;;;;;10.50;7.57;;;;;;;;;;5023498;28;20411;-59
2023/09/12 11:37:30;;;;;;;11.43;8.00;;;;;;;;;;5022708;28;20470;-58
2023/09/12 11:39:57;;;;;;;11.13;7.77;;;;;;;;;;5019944;28;20420;-58
2023/09/12 11:42:25;;;;;;;11.38;8.27;;;;;;;;;;5021424;28;20405;-58
2023/09/12 11:44:50;;;;;;;11.68;8.07;;;;;;;;;;5021670;28;20464;-58
2023/09/12 11:47:15;;;;;;;12.25;8.93;;;;;;;;;;5020223;28;20399;-59
2023/09/12 11:49:41;;;;;;;12.65;8.93;;;;;;;;;;5019372;28;20420;-58
2023/09/12 11:52:14;;;;;;;11.97;8.77;;;;;;;;;;5021847;28;20505;-59
2023/09/12 11:54:41;;;;;;;12.68;8.63;;;;;;;;;;5023478;28;20530;-58
2023/09/12 11:57:07;;;;;;;11.95;8.07;;;;;;;;;;5016736;28;20494;-59
2023/09/12 11:59:32;;;;;;;11.50;9.23;;;;;;;;;;5021297;28;20497;-58
2023/09/12 12:01:58;;;;;;;10.77;7.70;;;;;;;;;;5020841;28;20981;-58
2023/09/12 12:04:24;;;;;;;11.80;8.93;;;;;;;;;;5020057;28;20442;-58
2023/09/12 12:06:50;;;;;;;11.68;7.57;;;;;;;;;;5020380;28;20387;-58
2023/09/12 12:09:18;;;;;;;12.30;8.63;;;;;;;;;;5023118;28;20490;-58
2023/09/12 12:11:43;;;;;;;12.33;8.37;;;;;;;;;;5021297;28;20411;-58
2023/09/12 12:14:10;;;;;;;11.33;7.80;;;;;;;;;;5016036;28;20422;-58
2023/09/12 12:16:35;;;;;;;11.93;8.60;;;;;;;;;;5006072;28;20403;-58
2023/09/12 12:19:00;;;;;;;10.60;8.30;;;;;;;;;;5021963;28;20418;-60
2023/09/12 12:21:27;;;;;;;12.33;8.67;;;;;;;;;;5019486;28;20405;-58
2023/09/12 12:24:00;;;;;;;11.63;8.07;;;;;;;;;;5030087;28;20431;-58
2023/09/12 12:26:25;;;;;;;11.75;8.65;;;;;;;;;;5020652;28;20407;-58
2023/09/12 12:28:51;;;;;;;11.32;7.55;;;;;;;;;;5023987;28;21013;-58
2023/09/12 12:31:16;;;;;;;11.83;8.33;;;;;;;;;;5021700;28;20410;-59
2023/09/12 12:33:47;;;;;;;12.83;8.50;;;;;;;;;;5023178;28;20754;-58
2023/09/12 12:36:12;;;;;;;11.80;7.97;;;;;;;;;;5025781;28;20603;-58
2023/09/12 12:38:38;;;;;;;11.07;8.03;;;;;;;;;;5025916;28;20482;-58
2023/09/12 12:41:03;;;;;;;9.77;6.70;;;;;;;;;;5021426;28;20466;-59
2023/09/12 12:43:28;;;;;;;9.67;6.97;;;;;;;;;;5025032;28;20460;-58
2023/09/12 12:45:54;;;;;;;10.20;7.53;;;;;;;;;;5024050;28;20433;-58
2023/09/12 12:48:29;;;;;;;10.68;7.72;;;;;;;;;;5024071;28;22152;-58
2023/09/12 12:50:54;;;;;;;11.27;8.18;;;;;;;;;;5036763;28;20404;-58
2023/09/12 12:53:36;;;;;;;10.10;7.17;;;;;;;;;;5034513;28;20417;-58
2023/09/12 12:56:02;;;;;;;10.25;6.65;;;;;;;;;;5042372;28;20405;-59
2023/09/12 12:58:27;;;;;;;11.52;6.90;;;;;;;;;;5029729;28;20478;-59
2023/09/12 13:00:52;;;;;;;9.70;6.93;;;;;;;;;;5023909;28;20502;-58
2023/09/12 13:03:18;;;;;;;8.80;6.10;;;;;;;;;;5028239;28;20411;-58
2023/09/12 13:05:43;;;;;;;10.13;6.53;;;;;;;;;;5030840;28;20399;-58
2023/09/12 13:08:08;;;;;;;11.30;6.80;;;;;;;;;;5022896;28;20407;-59
2023/09/12 13:10:34;;;;;;;9.07;6.50;;;;;;;;;;5025474;28;20412;-58
2023/09/12 13:12:59;;;;;;;9.40;6.50;;;;;;;;;;5026042;28;20403;-58
2023/09/12 13:15:25;;;;;;;10.27;7.10;;;;;;;;;;5022983;28;20449;-58
2023/09/12 13:17:50;;;;;;;9.80;6.93;;;;;;;;;;5023194;28;20755;-58
2023/09/12 13:20:15;;;;;;;9.97;7.37;;;;;;;;;;5035833;28;20474;-58
2023/09/12 13:22:43;;;;;;;10.60;6.83;;;;;;;;;;5036820;28;20412;-58
2023/09/12 13:25:08;;;;;;;9.57;7.28;;;;;;;;;;5032042;28;20411;-58
2023/09/12 13:27:34;;;;;;;11.47;6.87;;;;;;;;;;5037652;28;20470;-58
2023/09/12 13:29:59;;;;;;;9.80;7.00;;;;;;;;;;5028717;28;20781;-58
2023/09/12 13:32:24;;;;;;;10.73;7.00;;;;;;;;;;5011146;28;20421;-58
2023/09/12 13:34:50;;;;;;;12.37;8.13;;;;;;;;;;4991922;28;20494;-58
2023/09/12 13:37:16;;;;;;;12.02;7.68;;;;;;;;;;4988416;28;20978;-58
2023/09/12 13:39:47;;;;;;;12.23;7.70;;;;;;;;;;5005686;28;21354;-58
2023/09/12 13:42:14;;;;;;;10.48;7.78;;;;;;;;;;5007040;28;20939;-58
2023/09/12 13:44:39;;;;;;;9.82;7.25;;;;;;;;;;4991846;28;20997;-58
2023/09/12 13:47:04;;;;;;;10.55;7.70;;;;;;;;;;4987790;28;20417;-59
2023/09/12 13:49:30;;;;;;;10.88;7.78;;;;;;;;;;4992581;28;20740;-58
2023/09/12 13:51:55;;;;;;;10.75;7.28;;;;;;;;;;4994951;28;20743;-59
2023/09/12 13:54:21;;;;;;;10.43;8.25;;;;;;;;;;4981218;28;20985;-58
2023/09/12 13:56:46;;;;;;;10.57;8.50;;;;;;;;;;4990037;28;20410;-58
2023/09/12 13:59:11;;;;;;;9.13;6.90;;;;;;;;;;4985918;28;20421;-59
2023/09/12 14:01:37;;;;;;;10.03;7.43;;;;;;;;;;4987089;28;20427;-59
2023/09/12 14:04:03;;;;;;;9.05;6.50;;;;;;;;;;4996874;28;21101;-59
2023/09/12 14:06:28;;;;;;;11.05;7.38;;;;;;;;;;4994884;28;20410;-58
2023/09/12 14:08:53;;;;;;;9.83;6.53;;;;;;;;;;4995044;28;20438;-58
2023/09/12 14:11:18;;;;;;;10.03;6.30;;;;;;;;;;4996042;28;20414;-59
2023/09/12 14:13:44;;;;;;;9.30;6.35;;;;;;;;;;4994856;28;20418;-58